Hobbs, NM

2:40 PM MDT on August 23, 2014 (GMT -0600)
Lea County Regional | Change Station
CLOSE
Current Station
Airport
Location: Hobbs,
Elevation: 3658 ft
Nearby Weather Stations

Elev 3658 ft 32.69 °N, 103.22 °W | Updated 50 minutes ago

Partly Cloudy
Partly Cloudy
86 °F
Feels Like 85 °F
N
10
Wind Variable Wind from SSW

Today
High -- | Low -- °F
--% Chance of Precip.
Yesterday
High -- | Low -- °F
Precip. -- in
6:21 AM 7:28 PM
Waning Crescent, 3% visible
Pressure 30.04 in
Visibility 10.0 miles
Clouds Few 6000 ft
Heat Index 85 °F
Dew Point 59 °F
Humidity 40%
Rainfall 0.00 in
Snow Depth Not available.
UV 11 out of 12
Pollen 8.50 out of 12
Air Quality Not available.
Flu Activity Not available.
METAR KHOB 231950Z 21009KT 10SM FEW060 30/15 A3004

More Conditions Fewer Conditions

Pressure 30.04 in
Visibility 10.0 miles
Clouds Few 6000 ft
Heat Index 85 °F
Dew Point 59 °F
Humidity 40%
Rainfall 0.00 in
Snow Depth Not available.
UV 11 out of 12
Pollen 8.50 out of 12
Air Quality Not available.
Flu Activity Not available.
METAR KHOB 231950Z 21009KT 10SM FEW060 30/15 A3004

More Conditions Fewer Conditions

10-Day Weather Forecast

Almanac

Astronomy

Aug. 23, 2014 Rise Set
Actual Time 6:21 AM MDT 7:28 PM MDT
Civil Twilight 5:55 AM MDT 7:53 PM MDT
Nautical Twilight 5:25 AM MDT 8:24 PM MDT
Astronomical Twilight 4:54 AM MDT 8:55 PM MDT
Moon 4:41 AM MDT 6:13 PM MDT
Length of Visible Light 13h 57m
Length of Day
13h 06m
Tomorrow will be 1m 51s shorter.
Waning Crescent, 3% of the Moon is Illuminated
Today
Waning Crescent
Aug 25
New
Sep 2
First Quarter
Sep 8
Full
Sep 15
Last Quarter

Today's Extremes

State Highs State Lows

Community

WunderPhotos

Upload Photos

1,746,622 photos uploaded!

WunderBlogs® & News

Nearby

Snow Depth

Station Depth Elevation
Sierra Blanca 0 in 10280 ft
Wesner Springs 1 in 11120 ft
Santa Fe 1 in 11445 ft
Tolby 0 in 10180 ft
Quemazon 0 in 9500 ft

Earthquake Activity

City Distance Mag. Time & Date
No recent earthquake activity has been reported nearby.
Minimum magnitude displayed is 2.5.

Coastal Water Temperatures

Place Temperature
No Stations Reporting

Nearby Weather Stations